Time;durP1;ratioP1;P1;durP2;ratioP2;P2;SDS_P1;SDS_P2;PMS_P1;PMS_P2;Temp;Humidity;BMP_temperature;BMP_pressure;BME280_temperature;BME280_humidity;BME280_pressure;Samples;Min_cycle;Max_cycle;Signal;HPM_P1;HPM_P2
2021/11/26 00:02:27;;;;;;;46.88;21.40;;;;;;;;;;5016191;28;20455;-49
2021/11/26 00:04:53;;;;;;;53.22;21.17;;;;;;;;;;5015406;28;20176;-51
2021/11/26 00:07:19;;;;;;;40.78;19.95;;;;;;;;;;5016235;28;20250;-51
2021/11/26 00:09:46;;;;;;;40.42;19.20;;;;;;;;;;5014957;28;20188;-51
2021/11/26 00:12:12;;;;;;;43.92;19.25;;;;;;;;;;5016349;28;20169;-49
2021/11/26 00:14:53;;;;;;;46.55;18.27;;;;;;;;;;5015826;28;20251;-49
2021/11/26 00:17:20;;;;;;;45.65;17.77;;;;;;;;;;5015964;28;20172;-50
2021/11/26 00:19:49;;;;;;;48.97;19.23;;;;;;;;;;5016015;28;20383;-51
2021/11/26 00:22:15;;;;;;;43.88;19.35;;;;;;;;;;5016789;28;20803;-50
2021/11/26 00:24:41;;;;;;;41.28;19.63;;;;;;;;;;5016254;28;20550;-50
2021/11/26 00:27:07;;;;;;;48.95;19.02;;;;;;;;;;5016899;28;20644;-49
2021/11/26 00:29:33;;;;;;;32.93;17.27;;;;;;;;;;5015248;28;20195;-51
2021/11/26 00:31:59;;;;;;;65.13;21.37;;;;;;;;;;5016099;28;20410;-51
2021/11/26 00:34:25;;;;;;;43.13;18.03;;;;;;;;;;5016021;28;20957;-51
2021/11/26 00:36:51;;;;;;;46.90;19.85;;;;;;;;;;5015579;28;20411;-49
2021/11/26 00:39:18;;;;;;;66.55;20.60;;;;;;;;;;5014636;28;20200;-49
2021/11/26 00:41:44;;;;;;;50.60;21.85;;;;;;;;;;5015491;28;20191;-50
2021/11/26 00:44:10;;;;;;;54.15;21.05;;;;;;;;;;5014940;28;20176;-49
2021/11/26 00:46:36;;;;;;;52.67;21.57;;;;;;;;;;5015407;28;20169;-49
2021/11/26 00:49:03;;;;;;;53.33;22.73;;;;;;;;;;5015553;28;20757;-49
2021/11/26 00:51:30;;;;;;;48.60;19.08;;;;;;;;;;5016484;28;20743;-51
2021/11/26 00:53:57;;;;;;;45.03;20.63;;;;;;;;;;5015679;28;20164;-50
2021/11/26 00:56:23;;;;;;;61.90;21.48;;;;;;;;;;5016148;28;20192;-49
2021/11/26 00:58:49;;;;;;;49.57;20.40;;;;;;;;;;5015232;28;20561;-49
2021/11/26 01:01:15;;;;;;;60.63;21.67;;;;;;;;;;5014957;28;20403;-51
2021/11/26 01:03:41;;;;;;;43.33;18.98;;;;;;;;;;5015005;28;20455;-49
2021/11/26 01:06:07;;;;;;;42.70;19.07;;;;;;;;;;5015456;28;20260;-51
2021/11/26 01:08:33;;;;;;;48.87;18.67;;;;;;;;;;5015341;28;20426;-50
2021/11/26 01:10:59;;;;;;;54.30;20.77;;;;;;;;;;5015556;28;20511;-52
2021/11/26 01:13:26;;;;;;;44.65;19.35;;;;;;;;;;5015647;28;20176;-50
2021/11/26 01:15:52;;;;;;;45.63;19.05;;;;;;;;;;5015854;28;20180;-51
2021/11/26 01:18:18;;;;;;;43.08;19.40;;;;;;;;;;5015634;28;20652;-51
2021/11/26 01:20:44;;;;;;;46.60;20.50;;;;;;;;;;5015490;28;20188;-50
2021/11/26 01:23:10;;;;;;;43.25;19.52;;;;;;;;;;5015643;28;20459;-49
2021/11/26 01:25:37;;;;;;;44.03;18.90;;;;;;;;;;5014475;28;20171;-49
2021/11/26 01:28:03;;;;;;;47.40;19.40;;;;;;;;;;5014081;28;20194;-49
2021/11/26 01:30:33;;;;;;;42.60;19.13;;;;;;;;;;5014469;28;20167;-49
2021/11/26 01:33:00;;;;;;;50.13;19.30;;;;;;;;;;5013900;28;20172;-49
2021/11/26 01:35:26;;;;;;;42.75;18.85;;;;;;;;;;5014578;28;20168;-49
2021/11/26 01:37:53;;;;;;;51.30;19.23;;;;;;;;;;5013764;28;20183;-50
2021/11/26 01:40:19;;;;;;;48.72;17.17;;;;;;;;;;5015348;28;20237;-51
2021/11/26 01:42:46;;;;;;;51.47;18.80;;;;;;;;;;5014126;28;20196;-50
2021/11/26 01:45:12;;;;;;;47.95;18.60;;;;;;;;;;5014597;28;20563;-49
2021/11/26 01:47:38;;;;;;;45.27;17.47;;;;;;;;;;5014286;28;20180;-50
2021/11/26 01:50:05;;;;;;;43.03;18.27;;;;;;;;;;5015132;28;20482;-49
2021/11/26 01:52:31;;;;;;;42.70;16.73;;;;;;;;;;5015730;28;20410;-50
2021/11/26 01:54:57;;;;;;;46.50;17.00;;;;;;;;;;5014952;28;20168;-51
2021/11/26 01:57:23;;;;;;;40.30;16.93;;;;;;;;;;5014866;28;20494;-50
2021/11/26 01:59:50;;;;;;;37.85;16.92;;;;;;;;;;5014772;28;20923;-49
2021/11/26 02:02:16;;;;;;;37.53;14.60;;;;;;;;;;5013689;28;20200;-51
2021/11/26 02:04:42;;;;;;;36.35;15.43;;;;;;;;;;5011230;28;20192;-49
2021/11/26 02:07:08;;;;;;;35.07;14.70;;;;;;;;;;5011351;28;20200;-48
2021/11/26 02:09:34;;;;;;;29.50;15.03;;;;;;;;;;5010546;28;20419;-49
2021/11/26 02:12:00;;;;;;;33.58;12.77;;;;;;;;;;5011538;28;20403;-50
2021/11/26 02:14:26;;;;;;;45.60;15.97;;;;;;;;;;5011552;28;20551;-50
2021/11/26 02:16:52;;;;;;;28.88;14.57;;;;;;;;;;5011550;28;20391;-49
2021/11/26 02:19:21;;;;;;;33.45;14.30;;;;;;;;;;5010823;28;20246;-49
2021/11/26 02:21:47;;;;;;;30.90;13.75;;;;;;;;;;5011314;28;20208;-49
2021/11/26 02:24:13;;;;;;;35.50;14.50;;;;;;;;;;5011458;28;20595;-49
2021/11/26 02:26:41;;;;;;;34.27;14.80;;;;;;;;;;5011497;28;20169;-50
2021/11/26 02:29:08;;;;;;;40.17;15.85;;;;;;;;;;5010732;28;20458;-50
2021/11/26 02:31:34;;;;;;;29.77;14.05;;;;;;;;;;5011489;28;20623;-50
2021/11/26 02:34:00;;;;;;;35.50;15.10;;;;;;;;;;5015543;28;20531;-48
2021/11/26 02:36:26;;;;;;;32.53;13.27;;;;;;;;;;5014602;28;20180;-48
2021/11/26 02:38:52;;;;;;;41.75;15.38;;;;;;;;;;5014231;28;20881;-48
2021/11/26 02:41:18;;;;;;;27.90;13.47;;;;;;;;;;5014940;28;20251;-48
2021/11/26 02:43:44;;;;;;;34.87;14.70;;;;;;;;;;5014752;28;20556;-48
2021/11/26 02:46:10;;;;;;;39.05;14.95;;;;;;;;;;5014624;28;20469;-48
2021/11/26 02:48:36;;;;;;;29.00;15.50;;;;;;;;;;5014002;28;20184;-48
2021/11/26 02:51:02;;;;;;;32.55;16.73;;;;;;;;;;5014628;28;20975;-48
2021/11/26 02:53:28;;;;;;;41.30;17.67;;;;;;;;;;5014603;28;20614;-49
2021/11/26 02:55:54;;;;;;;37.25;16.88;;;;;;;;;;5014643;28;20566;-50
2021/11/26 02:58:20;;;;;;;31.70;14.60;;;;;;;;;;5013912;28;20489;-48
2021/11/26 03:00:48;;;;;;;34.08;17.38;;;;;;;;;;5014467;28;20891;-48
2021/11/26 03:03:14;;;;;;;35.35;16.88;;;;;;;;;;5014321;28;20200;-48
2021/11/26 03:05:40;;;;;;;35.15;18.25;;;;;;;;;;5014365;28;20165;-48
2021/11/26 03:08:07;;;;;;;35.40;17.60;;;;;;;;;;5013633;28;20196;-48
2021/11/26 03:10:34;;;;;;;45.50;18.80;;;;;;;;;;5014354;28;20215;-48
2021/11/26 03:13:01;;;;;;;52.67;19.25;;;;;;;;;;5014210;28;20512;-48
2021/11/26 03:15:29;;;;;;;44.35;19.60;;;;;;;;;;5014168;28;20298;-50
2021/11/26 03:17:55;;;;;;;54.38;20.08;;;;;;;;;;5013504;28;20203;-48
2021/11/26 03:20:21;;;;;;;44.60;20.05;;;;;;;;;;5014029;28;20172;-49
2021/11/26 03:22:47;;;;;;;49.92;21.63;;;;;;;;;;5014087;28;20200;-49
2021/11/26 03:25:14;;;;;;;40.60;19.60;;;;;;;;;;5014369;28;20172;-48
2021/11/26 03:27:40;;;;;;;55.75;22.50;;;;;;;;;;5013293;28;20173;-48
2021/11/26 03:30:08;;;;;;;33.50;19.92;;;;;;;;;;5013944;28;20480;-48
2021/11/26 03:32:34;;;;;;;42.58;20.58;;;;;;;;;;5013897;28;20551;-48
2021/11/26 03:35:00;;;;;;;50.20;19.20;;;;;;;;;;5014023;28;20164;-48
2021/11/26 03:37:26;;;;;;;46.47;21.20;;;;;;;;;;5013189;28;20903;-52
2021/11/26 03:39:52;;;;;;;57.10;21.80;;;;;;;;;;5013693;28;20481;-48
2021/11/26 03:42:18;;;;;;;51.60;20.83;;;;;;;;;;5013642;28;20450;-48
2021/11/26 03:44:44;;;;;;;51.40;20.43;;;;;;;;;;5013519;28;20403;-48
2021/11/26 03:47:10;;;;;;;54.90;23.40;;;;;;;;;;5013783;28;20403;-48
2021/11/26 03:49:36;;;;;;;53.15;24.98;;;;;;;;;;5012814;28;20841;-47
2021/11/26 03:52:03;;;;;;;46.47;21.43;;;;;;;;;;5013547;28;20199;-48
2021/11/26 03:54:28;;;;;;;43.50;21.60;;;;;;;;;;5013511;28;20414;-48
2021/11/26 03:56:54;;;;;;;48.60;22.40;;;;;;;;;;5013410;28;20263;-48
2021/11/26 03:59:20;;;;;;;41.30;20.23;;;;;;;;;;5012600;28;20434;-48
2021/11/26 04:01:46;;;;;;;43.88;19.45;;;;;;;;;;5013223;28;20395;-50
2021/11/26 04:04:12;;;;;;;50.33;22.00;;;;;;;;;;5013193;28;20218;-48
2021/11/26 04:06:38;;;;;;;48.03;20.20;;;;;;;;;;5013317;28;20412;-48
2021/11/26 04:09:04;;;;;;;41.50;19.73;;;;;;;;;;5012490;28;20427;-48
2021/11/26 04:11:31;;;;;;;61.43;23.77;;;;;;;;;;5013165;28;20404;-48
2021/11/26 04:13:58;;;;;;;38.42;19.52;;;;;;;;;;5013003;28;20770;-50
2021/11/26 04:16:25;;;;;;;46.83;22.00;;;;;;;;;;5013066;28;20192;-48
2021/11/26 04:18:50;;;;;;;57.95;24.23;;;;;;;;;;5012323;28;20188;-48
2021/11/26 04:21:16;;;;;;;58.37;22.40;;;;;;;;;;5012903;28;20191;-48
2021/11/26 04:23:44;;;;;;;57.65;22.85;;;;;;;;;;5012875;28;20525;-48
2021/11/26 04:26:10;;;;;;;45.63;22.40;;;;;;;;;;5012868;28;20549;-48
2021/11/26 04:28:36;;;;;;;45.70;21.07;;;;;;;;;;5012194;28;20188;-48
2021/11/26 04:31:03;;;;;;;45.10;21.03;;;;;;;;;;5012803;28;20457;-48
2021/11/26 04:33:29;;;;;;;58.15;22.33;;;;;;;;;;5012702;28;20439;-51
2021/11/26 04:35:55;;;;;;;53.40;23.13;;;;;;;;;;5012759;28;20214;-50
2021/11/26 04:38:21;;;;;;;51.30;23.92;;;;;;;;;;5012007;28;20235;-48
2021/11/26 04:40:47;;;;;;;55.15;22.75;;;;;;;;;;5012614;28;20632;-48
2021/11/26 04:43:13;;;;;;;51.70;23.40;;;;;;;;;;5012515;28;20192;-50
2021/11/26 04:45:39;;;;;;;44.70;22.50;;;;;;;;;;5012585;28;20675;-49
2021/11/26 04:48:06;;;;;;;52.53;21.42;;;;;;;;;;5011787;28;20188;-49
2021/11/26 04:50:32;;;;;;;58.65;24.48;;;;;;;;;;5012553;28;20172;-50
2021/11/26 04:52:57;;;;;;;47.13;22.37;;;;;;;;;;5012462;28;20172;-48
2021/11/26 04:55:24;;;;;;;48.57;21.27;;;;;;;;;;5011920;28;20407;-48
2021/11/26 04:57:51;;;;;;;40.88;21.52;;;;;;;;;;5011703;28;20766;-48
2021/11/26 05:00:19;;;;;;;48.03;23.23;;;;;;;;;;5012569;28;20172;-48
2021/11/26 05:02:45;;;;;;;47.40;23.90;;;;;;;;;;5012233;28;20553;-48
2021/11/26 05:05:11;;;;;;;48.70;23.98;;;;;;;;;;5012275;28;20164;-48
2021/11/26 05:07:37;;;;;;;42.58;23.17;;;;;;;;;;5011575;28;20165;-48
2021/11/26 05:10:07;;;;;;;48.05;24.15;;;;;;;;;;5012242;28;20196;-48
2021/11/26 05:12:37;;;;;;;38.95;22.67;;;;;;;;;;5012237;28;20164;-48
2021/11/26 05:15:04;;;;;;;45.22;24.60;;;;;;;;;;5012222;28;20474;-48
2021/11/26 05:17:30;;;;;;;51.13;23.40;;;;;;;;;;5011454;28;20168;-48
2021/11/26 05:19:58;;;;;;;45.20;23.33;;;;;;;;;;5011749;28;20717;-48
2021/11/26 05:22:24;;;;;;;55.03;23.83;;;;;;;;;;5011860;28;20462;-48
2021/11/26 05:24:50;;;;;;;39.30;21.35;;;;;;;;;;5012125;28;20394;-48
2021/11/26 05:27:16;;;;;;;40.77;23.07;;;;;;;;;;5012063;28;20165;-48
2021/11/26 05:29:41;;;;;;;41.83;22.90;;;;;;;;;;5011380;28;20941;-48
2021/11/26 05:32:09;;;;;;;44.83;23.53;;;;;;;;;;5011960;28;20549;-49
2021/11/26 05:34:35;;;;;;;40.67;21.02;;;;;;;;;;5011932;28;20989;-48
2021/11/26 05:37:01;;;;;;;41.42;21.65;;;;;;;;;;5011918;28;20652;-48
2021/11/26 05:39:27;;;;;;;48.07;21.67;;;;;;;;;;5011229;28;20192;-48
2021/11/26 05:41:53;;;;;;;38.70;20.73;;;;;;;;;;5011858;28;20961;-50
2021/11/26 05:44:19;;;;;;;35.10;19.90;;;;;;;;;;5011814;28;20407;-49
2021/11/26 05:46:45;;;;;;;40.40;21.70;;;;;;;;;;5011961;28;20738;-48
2021/11/26 05:49:11;;;;;;;30.10;18.70;;;;;;;;;;5011102;28;20538;-47
2021/11/26 05:51:37;;;;;;;30.73;19.40;;;;;;;;;;5011790;28;20486;-48
2021/11/26 05:54:03;;;;;;;40.30;19.45;;;;;;;;;;5011769;28;20406;-48
2021/11/26 05:56:29;;;;;;;34.38;19.95;;;;;;;;;;5011816;28;20267;-48
2021/11/26 05:58:55;;;;;;;33.75;18.90;;;;;;;;;;5011096;28;20235;-48
2021/11/26 06:01:21;;;;;;;29.20;18.33;;;;;;;;;;5011716;28;20168;-48
2021/11/26 06:03:47;;;;;;;29.20;19.13;;;;;;;;;;5011565;28;20469;-48
2021/11/26 06:06:13;;;;;;;39.65;18.70;;;;;;;;;;5011546;28;20399;-48
2021/11/26 06:08:39;;;;;;;31.00;17.83;;;;;;;;;;5014239;28;20718;-48
2021/11/26 06:11:05;;;;;;;30.60;18.00;;;;;;;;;;5015498;28;20164;-49
2021/11/26 06:13:31;;;;;;;26.03;15.60;;;;;;;;;;5015306;28;20911;-48
2021/11/26 06:15:57;;;;;;;30.53;16.53;;;;;;;;;;5015322;28;20486;-50
2021/11/26 06:18:23;;;;;;;25.17;15.33;;;;;;;;;;5014593;28;20527;-48
2021/11/26 06:20:49;;;;;;;24.17;15.60;;;;;;;;;;5015075;28;20431;-48
2021/11/26 06:23:15;;;;;;;29.50;15.97;;;;;;;;;;5015120;28;20474;-48
2021/11/26 06:25:41;;;;;;;26.27;14.53;;;;;;;;;;5015232;28;20486;-48
2021/11/26 06:28:07;;;;;;;33.00;15.20;;;;;;;;;;5014420;28;20427;-48
2021/11/26 06:30:33;;;;;;;20.90;13.97;;;;;;;;;;5015087;28;20401;-48
2021/11/26 06:32:59;;;;;;;21.98;14.40;;;;;;;;;;5015006;28;20407;-48
2021/11/26 06:35:25;;;;;;;21.88;12.60;;;;;;;;;;5014869;28;20177;-48
2021/11/26 06:37:52;;;;;;;20.63;12.25;;;;;;;;;;5014261;28;20180;-48
2021/11/26 06:40:19;;;;;;;23.38;14.38;;;;;;;;;;5014905;28;20180;-48
2021/11/26 06:42:45;;;;;;;18.52;11.10;;;;;;;;;;5014886;28;20470;-48
2021/11/26 06:45:11;;;;;;;16.85;11.68;;;;;;;;;;5014718;28;20168;-50
2021/11/26 06:47:38;;;;;;;18.90;11.23;;;;;;;;;;5014051;28;20165;-48
2021/11/26 06:50:04;;;;;;;16.55;11.63;;;;;;;;;;5014666;28;20252;-48
2021/11/26 06:52:30;;;;;;;20.38;11.27;;;;;;;;;;5014679;28;20168;-48
2021/11/26 06:54:56;;;;;;;25.33;12.17;;;;;;;;;;5014585;28;20690;-48
2021/11/26 06:57:22;;;;;;;22.67;10.65;;;;;;;;;;5014531;28;20425;-48
2021/11/26 06:59:48;;;;;;;19.23;12.10;;;;;;;;;;5013903;28;20758;-49
2021/11/26 07:02:14;;;;;;;17.10;9.90;;;;;;;;;;5014469;28;20459;-50
2021/11/26 07:04:43;;;;;;;18.10;10.23;;;;;;;;;;5014321;28;20858;-48
2021/11/26 07:07:11;;;;;;;17.27;9.50;;;;;;;;;;5014629;28;20441;-48
2021/11/26 07:09:37;;;;;;;16.88;10.10;;;;;;;;;;5013672;28;20199;-51
2021/11/26 07:12:05;;;;;;;16.00;10.43;;;;;;;;;;5014362;28;20165;-50
2021/11/26 07:14:31;;;;;;;14.65;9.48;;;;;;;;;;5014141;28;20402;-50
2021/11/26 07:16:57;;;;;;;12.60;8.77;;;;;;;;;;5014184;28;20259;-48
2021/11/26 07:19:23;;;;;;;16.63;10.10;;;;;;;;;;5013084;28;20485;-48
2021/11/26 07:21:49;;;;;;;15.27;9.63;;;;;;;;;;5011152;28;20444;-48
2021/11/26 07:24:15;;;;;;;16.00;9.30;;;;;;;;;;5009534;28;20418;-48
2021/11/26 07:26:41;;;;;;;17.90;8.93;;;;;;;;;;5013960;28;20427;-48
2021/11/26 07:29:08;;;;;;;14.67;9.30;;;;;;;;;;5013277;28;20419;-48
2021/11/26 07:31:34;;;;;;;10.20;8.27;;;;;;;;;;5013814;28;20404;-48
2021/11/26 07:34:00;;;;;;;11.80;8.43;;;;;;;;;;5014034;28;20176;-49
2021/11/26 07:36:28;;;;;;;10.53;8.13;;;;;;;;;;5013759;28;20411;-48
2021/11/26 07:38:55;;;;;;;14.50;9.25;;;;;;;;;;5013112;28;20427;-48
2021/11/26 07:41:21;;;;;;;14.63;8.30;;;;;;;;;;5013508;28;20188;-49
2021/11/26 07:43:47;;;;;;;12.90;9.20;;;;;;;;;;5012293;28;20679;-50
2021/11/26 07:46:13;;;;;;;14.75;9.40;;;;;;;;;;5013519;28;20458;-50
2021/11/26 07:48:39;;;;;;;11.23;8.40;;;;;;;;;;5012941;28;20223;-48
2021/11/26 07:51:05;;;;;;;18.10;9.13;;;;;;;;;;5013604;28;20428;-48
2021/11/26 07:53:32;;;;;;;11.17;7.73;;;;;;;;;;5013539;28;20573;-48
2021/11/26 07:55:58;;;;;;;13.45;8.85;;;;;;;;;;5013283;28;20400;-49
2021/11/26 07:58:24;;;;;;;11.95;8.50;;;;;;;;;;5012678;28;20188;-49
2021/11/26 08:00:50;;;;;;;13.38;8.55;;;;;;;;;;5013336;28;20173;-48
2021/11/26 08:03:19;;;;;;;12.50;9.18;;;;;;;;;;5013259;28;20215;-49
2021/11/26 08:05:45;;;;;;;15.32;9.60;;;;;;;;;;5013323;28;20171;-48
2021/11/26 08:08:11;;;;;;;12.43;8.70;;;;;;;;;;5012588;28;20690;-48
2021/11/26 08:10:37;;;;;;;18.10;9.10;;;;;;;;;;5013263;28;20180;-50
2021/11/26 08:13:04;;;;;;;13.35;8.48;;;;;;;;;;5013120;28;20399;-48
2021/11/26 08:15:31;;;;;;;11.40;8.50;;;;;;;;;;5013062;28;20541;-48
2021/11/26 08:17:57;;;;;;;13.80;8.07;;;;;;;;;;5012379;28;20184;-48
2021/11/26 08:20:23;;;;;;;14.05;8.18;;;;;;;;;;5012945;28;20648;-49
2021/11/26 08:22:50;;;;;;;12.50;7.63;;;;;;;;;;5013006;28;20203;-50
2021/11/26 08:25:18;;;;;;;12.93;9.00;;;;;;;;;;5012881;28;20400;-49
2021/11/26 08:27:45;;;;;;;13.07;7.35;;;;;;;;;;5012086;28;20196;-48
2021/11/26 08:30:11;;;;;;;10.93;7.80;;;;;;;;;;5012198;28;20246;-48
2021/11/26 08:32:39;;;;;;;15.02;8.63;;;;;;;;;;5012769;28;20573;-48
2021/11/26 08:35:05;;;;;;;13.80;8.23;;;;;;;;;;5013682;28;20592;-48
2021/11/26 08:37:31;;;;;;;14.88;9.13;;;;;;;;;;5012112;28;20259;-48
2021/11/26 08:39:57;;;;;;;14.07;9.38;;;;;;;;;;5012667;28;20219;-48
2021/11/26 08:42:23;;;;;;;9.73;7.47;;;;;;;;;;5012459;28;20220;-49
2021/11/26 08:44:49;;;;;;;12.50;8.68;;;;;;;;;;5012581;28;20457;-51
2021/11/26 08:47:15;;;;;;;15.10;8.33;;;;;;;;;;5012587;28;20168;-48
2021/11/26 08:49:40;;;;;;;15.70;9.47;;;;;;;;;;5011861;28;20522;-48
2021/11/26 08:52:07;;;;;;;15.23;9.27;;;;;;;;;;5012579;28;20407;-48
2021/11/26 08:54:35;;;;;;;18.23;8.38;;;;;;;;;;5012417;28;20411;-49
2021/11/26 08:57:02;;;;;;;15.70;9.13;;;;;;;;;;5012331;28;20721;-48
2021/11/26 08:59:29;;;;;;;15.35;10.32;;;;;;;;;;5011724;28;20188;-48
2021/11/26 09:01:55;;;;;;;12.38;8.82;;;;;;;;;;5012359;28;20194;-48
2021/11/26 09:04:21;;;;;;;17.57;9.77;;;;;;;;;;5012488;28;20692;-48
2021/11/26 09:06:49;;;;;;;19.35;9.93;;;;;;;;;;5012324;28;20902;-48
2021/11/26 09:09:16;;;;;;;20.67;11.32;;;;;;;;;;5011619;28;20676;-48
2021/11/26 09:11:42;;;;;;;22.80;10.18;;;;;;;;;;5012098;28;20186;-50
2021/11/26 09:14:08;;;;;;;16.80;11.63;;;;;;;;;;5012229;28;20169;-48
2021/11/26 09:16:35;;;;;;;23.97;12.00;;;;;;;;;;5012164;28;20399;-48
2021/11/26 09:19:01;;;;;;;22.38;12.25;;;;;;;;;;5011433;28;20499;-51
2021/11/26 09:21:27;;;;;;;16.98;10.82;;;;;;;;;;5012006;28;20184;-50
2021/11/26 09:23:55;;;;;;;24.60;12.30;;;;;;;;;;5012029;28;20275;-50
2021/11/26 09:26:21;;;;;;;22.95;11.30;;;;;;;;;;5012042;28;20399;-48
2021/11/26 09:28:47;;;;;;;22.90;11.47;;;;;;;;;;5011403;28;20187;-48
2021/11/26 09:31:13;;;;;;;27.03;12.60;;;;;;;;;;5012055;28;20399;-48
2021/11/26 09:33:39;;;;;;;22.60;12.10;;;;;;;;;;5012259;28;20399;-48
2021/11/26 09:36:06;;;;;;;14.73;10.93;;;;;;;;;;5012056;28;20670;-48
2021/11/26 09:38:36;;;;;;;32.75;12.18;;;;;;;;;;5011234;28;20439;-50
2021/11/26 09:41:03;;;;;;;32.08;12.85;;;;;;;;;;5012769;28;20168;-48
2021/11/26 09:43:30;;;;;;;18.58;11.35;;;;;;;;;;5015810;28;20287;-48
2021/11/26 09:45:57;;;;;;;22.77;11.55;;;;;;;;;;5015955;28;20285;-48
2021/11/26 09:48:23;;;;;;;20.50;12.15;;;;;;;;;;5015468;28;20639;-50
2021/11/26 09:50:49;;;;;;;21.05;11.73;;;;;;;;;;5015854;28;20168;-50
2021/11/26 09:53:20;;;;;;;19.75;12.40;;;;;;;;;;5015680;28;20237;-49
2021/11/26 09:55:51;;;;;;;20.25;10.85;;;;;;;;;;5015790;28;20172;-48
2021/11/26 09:58:17;;;;;;;24.10;9.50;;;;;;;;;;5015099;28;20237;-48
2021/11/26 10:00:44;;;;;;;20.52;10.48;;;;;;;;;;5015658;28;20203;-48
2021/11/26 10:03:10;;;;;;;22.75;9.95;;;;;;;;;;5015508;28;20195;-49
2021/11/26 10:05:36;;;;;;;16.20;9.30;;;;;;;;;;5015590;28;20164;-48
2021/11/26 10:08:03;;;;;;;15.77;8.80;;;;;;;;;;5014764;28;20485;-49
2021/11/26 10:10:35;;;;;;;24.25;8.38;;;;;;;;;;5015455;28;20171;-48
2021/11/26 10:13:01;;;;;;;13.68;9.05;;;;;;;;;;5015460;28;20160;-49
2021/11/26 10:15:28;;;;;;;14.60;8.43;;;;;;;;;;5015546;28;20169;-48
2021/11/26 10:18:03;;;;;;;17.15;7.85;;;;;;;;;;5014673;28;20399;-48
2021/11/26 10:20:29;;;;;;;21.73;9.68;;;;;;;;;;5014757;28;20596;-48
2021/11/26 10:22:55;;;;;;;11.82;7.28;;;;;;;;;;5013133;28;20239;-49
2021/11/26 10:25:22;;;;;;;13.70;8.50;;;;;;;;;;5015327;28;20199;-50
2021/11/26 10:28:03;;;;;;;10.95;7.88;;;;;;;;;;5014379;28;20449;-49
2021/11/26 10:30:31;;;;;;;16.42;6.60;;;;;;;;;;5015502;28;20169;-48
2021/11/26 10:32:59;;;;;;;17.95;7.65;;;;;;;;;;5014809;28;20168;-48
2021/11/26 10:35:26;;;;;;;12.23;7.10;;;;;;;;;;5014951;28;20176;-48
2021/11/26 10:37:56;;;;;;;13.82;8.25;;;;;;;;;;5014157;28;20168;-48
2021/11/26 10:40:24;;;;;;;17.98;8.15;;;;;;;;;;5014422;28;20165;-48
2021/11/26 10:42:50;;;;;;;19.02;6.88;;;;;;;;;;5014287;28;20280;-48
2021/11/26 10:45:28;;;;;;;14.53;7.00;;;;;;;;;;5013394;28;20260;-49
2021/11/26 10:48:17;;;;;;;13.90;7.38;;;;;;;;;;5013842;28;20482;-48
2021/11/26 10:50:57;;;;;;;11.48;6.15;;;;;;;;;;5014362;28;20218;-48
2021/11/26 10:59:03;;;;;;;15.15;7.03;;;;;;;;;;5010185;28;20215;-49
2021/11/26 11:01:30;;;;;;;10.60;5.80;;;;;;;;;;5011338;28;20168;-48
2021/11/26 11:04:12;;;;;;;17.23;7.43;;;;;;;;;;5014243;28;20199;-48
2021/11/26 11:06:38;;;;;;;15.07;7.75;;;;;;;;;;5014431;28;20187;-48
2021/11/26 11:09:05;;;;;;;13.50;7.43;;;;;;;;;;5013458;28;20663;-48
2021/11/26 11:11:31;;;;;;;15.63;8.05;;;;;;;;;;5014170;28;20392;-48
2021/11/26 11:14:01;;;;;;;11.43;6.53;;;;;;;;;;5014160;28;20168;-48
2021/11/26 11:16:27;;;;;;;12.45;6.53;;;;;;;;;;5014171;28;20179;-50
2021/11/26 11:18:54;;;;;;;13.90;6.85;;;;;;;;;;5013268;28;20275;-48
2021/11/26 11:21:20;;;;;;;13.45;6.10;;;;;;;;;;5013992;28;20211;-48
2021/11/26 11:23:51;;;;;;;11.07;6.28;;;;;;;;;;5014040;28;20390;-49
2021/11/26 11:26:17;;;;;;;8.30;6.60;;;;;;;;;;5014877;28;20228;-49
2021/11/26 11:28:45;;;;;;;18.27;6.50;;;;;;;;;;5015182;28;20216;-49
2021/11/26 11:31:11;;;;;;;15.45;6.57;;;;;;;;;;5015129;28;20395;-49
2021/11/26 11:33:39;;;;;;;22.00;6.83;;;;;;;;;;5014891;28;20176;-49
2021/11/26 11:36:07;;;;;;;17.63;6.05;;;;;;;;;;5015613;28;20406;-50
2021/11/26 11:38:33;;;;;;;10.30;6.90;;;;;;;;;;5014473;28;20189;-49
2021/11/26 11:41:04;;;;;;;14.27;7.00;;;;;;;;;;5015233;28;20172;-49
2021/11/26 11:43:39;;;;;;;11.98;6.78;;;;;;;;;;5014643;28;20439;-51
2021/11/26 11:46:06;;;;;;;15.13;6.20;;;;;;;;;;5014920;28;20874;-50
2021/11/26 11:48:36;;;;;;;14.75;5.93;;;;;;;;;;5014657;28;20188;-49
2021/11/26 11:51:03;;;;;;;11.13;5.82;;;;;;;;;;5015309;28;20175;-50
2021/11/26 11:53:34;;;;;;;23.98;7.93;;;;;;;;;;5014698;28;20172;-51
2021/11/26 11:56:19;;;;;;;17.25;8.00;;;;;;;;;;5014722;28;20169;-50
2021/11/26 11:58:56;;;;;;;12.50;6.13;;;;;;;;;;4994903;28;20199;-51
2021/11/26 12:01:23;;;;;;;20.48;7.20;;;;;;;;;;5012331;28;20222;-50
2021/11/26 12:03:51;;;;;;;11.77;6.85;;;;;;;;;;5012023;28;20203;-51
2021/11/26 12:06:17;;;;;;;17.58;7.50;;;;;;;;;;5012365;28;20168;-50
2021/11/26 12:08:48;;;;;;;8.43;6.93;;;;;;;;;;5012811;28;20284;-49
2021/11/26 12:11:27;;;;;;;9.65;4.82;;;;;;;;;;5014014;28;20629;-51
2021/11/26 12:14:00;;;;;;;14.50;7.40;;;;;;;;;;5013752;28;20743;-49
2021/11/26 12:16:27;;;;;;;9.88;5.65;;;;;;;;;;4997056;28;20614;-50
2021/11/26 12:18:53;;;;;;;10.93;6.03;;;;;;;;;;5012940;28;20195;-49
2021/11/26 12:21:21;;;;;;;11.48;6.78;;;;;;;;;;5013336;28;20196;-51
2021/11/26 12:24:15;;;;;;;10.77;6.20;;;;;;;;;;5013302;28;20766;-50
2021/11/26 12:26:48;;;;;;;8.93;5.72;;;;;;;;;;5013646;28;20160;-49
2021/11/26 12:29:14;;;;;;;14.48;6.32;;;;;;;;;;5013283;28;20192;-51
2021/11/26 12:31:41;;;;;;;10.70;5.30;;;;;;;;;;5013738;28;20238;-52
2021/11/26 12:34:08;;;;;;;13.07;5.97;;;;;;;;;;5013458;28;20175;-51
2021/11/26 12:36:36;;;;;;;12.18;5.70;;;;;;;;;;5013426;28;20648;-50
2021/11/26 12:39:04;;;;;;;6.45;5.43;;;;;;;;;;5013143;28;20188;-49
2021/11/26 12:41:33;;;;;;;6.45;5.07;;;;;;;;;;5014817;28;20186;-50
2021/11/26 12:43:59;;;;;;;8.48;4.93;;;;;;;;;;5015833;28;20263;-50
2021/11/26 12:46:31;;;;;;;13.38;4.40;;;;;;;;;;5015481;28;20227;-50
2021/11/26 12:49:12;;;;;;;10.07;4.82;;;;;;;;;;5015920;28;20562;-49
2021/11/26 12:51:39;;;;;;;12.32;5.53;;;;;;;;;;5016282;28;20227;-51
2021/11/26 12:54:05;;;;;;;5.13;4.53;;;;;;;;;;5014829;28;20259;-51
2021/11/26 12:56:38;;;;;;;12.75;5.30;;;;;;;;;;5016152;28;20168;-51
2021/11/26 12:59:05;;;;;;;6.78;4.45;;;;;;;;;;5017742;28;20201;-51
2021/11/26 13:01:32;;;;;;;6.07;3.75;;;;;;;;;;5014392;28;20169;-51
2021/11/26 13:03:58;;;;;;;8.20;4.03;;;;;;;;;;5013335;28;20766;-49
2021/11/26 13:06:26;;;;;;;8.13;3.33;;;;;;;;;;5013116;28;20408;-52
2021/11/26 13:09:02;;;;;;;13.80;4.25;;;;;;;;;;5012741;28;20181;-49
2021/11/26 13:11:28;;;;;;;10.35;4.60;;;;;;;;;;5014015;28;20168;-49
2021/11/26 13:14:01;;;;;;;6.40;3.10;;;;;;;;;;5014926;28;20231;-49
2021/11/26 13:16:27;;;;;;;7.05;4.07;;;;;;;;;;5015189;28;20411;-51
2021/11/26 13:18:53;;;;;;;3.47;3.17;;;;;;;;;;5014992;28;20200;-49
2021/11/26 13:21:19;;;;;;;6.00;3.17;;;;;;;;;;5015477;28;20429;-50
2021/11/26 13:23:45;;;;;;;6.50;3.27;;;;;;;;;;5015664;28;20496;-49
2021/11/26 13:26:11;;;;;;;4.50;3.07;;;;;;;;;;5015128;28;20462;-50
2021/11/26 13:28:39;;;;;;;3.63;2.70;;;;;;;;;;5015113;28;20453;-50
2021/11/26 13:31:07;;;;;;;4.22;2.95;;;;;;;;;;5015309;28;20522;-51
2021/11/26 13:33:35;;;;;;;5.15;2.67;;;;;;;;;;5014935;28;20168;-50
2021/11/26 13:36:09;;;;;;;5.10;2.53;;;;;;;;;;5014909;28;20180;-50
2021/11/26 13:38:41;;;;;;;6.85;2.72;;;;;;;;;;5013570;28;20905;-51
2021/11/26 13:41:13;;;;;;;6.05;2.88;;;;;;;;;;5012999;28;20259;-49
2021/11/26 13:43:40;;;;;;;4.15;2.80;;;;;;;;;;5012544;28;20696;-50
2021/11/26 13:46:10;;;;;;;4.70;2.55;;;;;;;;;;5012638;28;20168;-50
2021/11/26 13:48:43;;;;;;;8.73;2.90;;;;;;;;;;5012444;28;20555;-51
2021/11/26 13:51:11;;;;;;;5.63;2.17;;;;;;;;;;5013396;28;20226;-49
2021/11/26 13:53:37;;;;;;;3.78;2.17;;;;;;;;;;5013284;28;20649;-49
2021/11/26 13:56:05;;;;;;;3.22;2.90;;;;;;;;;;5013240;28;20648;-49
2021/11/26 13:58:33;;;;;;;2.33;2.13;;;;;;;;;;5012620;28;20192;-49
2021/11/26 14:00:59;;;;;;;6.97;2.90;;;;;;;;;;5013060;28;20161;-51
2021/11/26 14:03:34;;;;;;;3.15;2.72;;;;;;;;;;5011991;28;20275;-50
2021/11/26 14:06:14;;;;;;;2.00;1.90;;;;;;;;;;5009397;28;20176;-48
2021/11/26 14:08:41;;;;;;;4.38;2.25;;;;;;;;;;5011035;28;20203;-49
2021/11/26 14:11:08;;;;;;;11.80;2.78;;;;;;;;;;5011731;28;20180;-48
2021/11/26 14:13:34;;;;;;;4.35;2.25;;;;;;;;;;5011523;28;20564;-49
2021/11/26 14:16:08;;;;;;;11.97;2.70;;;;;;;;;;5011660;28;20172;-48
2021/11/26 14:18:34;;;;;;;3.53;2.10;;;;;;;;;;5011042;28;20419;-49
2021/11/26 14:21:05;;;;;;;4.75;2.60;;;;;;;;;;5011751;28;20188;-49
2021/11/26 14:23:31;;;;;;;10.90;2.90;;;;;;;;;;5011883;28;20207;-49
2021/11/26 14:26:06;;;;;;;8.55;2.60;;;;;;;;;;5011910;28;20172;-49
2021/11/26 14:28:32;;;;;;;6.05;2.90;;;;;;;;;;5012585;28;20184;-49
2021/11/26 14:31:05;;;;;;;5.37;2.97;;;;;;;;;;5015354;28;20172;-50